KBAF/BAF METAR and TAF weather

Enter ICAO airport designator
Station Type Date Time Source
KBAF METAR 2020/07/15 00:53 UTC NOAA

KBAF 150053Z 00000KT 10SM CLR 21/19 A3004 RMK AO2 SLP171 T02060189


Station Type Date Time Source
KBAF Decoded METAR 2020/07/15 00:53 UTC NOAA

WESTFIELD BARNES MUNICIPAL, MA, United States (KBAF) 42-10N 072-43W 83M
Jul 14, 2020 - 08:53 PM EDT / 2020.07.15 0053 UTC
Wind: Calm:0
Visibility: 10 mile(s):0
Sky conditions: clear
Temperature: 69.1 F (20.6 C)
Dew Point: 66.0 F (18.9 C)
Relative Humidity: 89%
Pressure (altimeter): 30.04 in. Hg (1017 hPa)
ob: KBAF 150053Z 00000KT 10SM CLR 21/19 A3004 RMK AO2 SLP171 T02060189
cycle: 1

Station Type Date Time Source
KBAF TAF 2020/07/14 20:12 UTC NOAA

TAF
AMD KBAF 142011Z 1420/1518 01008KT P6SM SCT060
TEMPO 1421/1422 5SM TSRA BR BKN035CB OVC080
FM150400 02004KT P6SM BKN030
FM150900 03003KT P6SM BKN025

Example: see airport list